sensor_id;sensor_type;location;lat;lon;timestamp;pressure;altitude;pressure_sealevel;temperature;humidity
78168;BME280;67410;42.698;23.378;2023-12-20T00:01:55;95997.47;;;-3.52;93.62
78168;BME280;67410;42.698;23.378;2023-12-20T00:04:21;95994.06;;;-3.52;92.81
78168;BME280;67410;42.698;23.378;2023-12-20T00:06:47;95990.69;;;-3.42;92.28
78168;BME280;67410;42.698;23.378;2023-12-20T00:09:13;95989.28;;;-3.46;91.46
78168;BME280;67410;42.698;23.378;2023-12-20T00:11:39;95990.56;;;-3.51;90.76
78168;BME280;67410;42.698;23.378;2023-12-20T00:14:08;95990.81;;;-3.65;91.00
78168;BME280;67410;42.698;23.378;2023-12-20T00:16:34;95986.47;;;-3.76;91.11
78168;BME280;67410;42.698;23.378;2023-12-20T00:19:00;95983.88;;;-3.76;90.97
78168;BME280;67410;42.698;23.378;2023-12-20T00:21:26;95990.22;;;-3.69;91.10
78168;BME280;67410;42.698;23.378;2023-12-20T00:23:52;95988.34;;;-3.67;90.41
78168;BME280;67410;42.698;23.378;2023-12-20T00:26:18;95982.72;;;-3.72;90.75
78168;BME280;67410;42.698;23.378;2023-12-20T00:28:44;95976.41;;;-3.79;91.23
78168;BME280;67410;42.698;23.378;2023-12-20T00:31:10;95975.81;;;-3.83;91.64
78168;BME280;67410;42.698;23.378;2023-12-20T00:33:37;95968.69;;;-3.79;92.06
78168;BME280;67410;42.698;23.378;2023-12-20T00:36:03;95963.78;;;-3.82;92.20
78168;BME280;67410;42.698;23.378;2023-12-20T00:38:29;95963.44;;;-3.78;92.32
78168;BME280;67410;42.698;23.378;2023-12-20T00:40:55;95954.44;;;-3.83;92.73
78168;BME280;67410;42.698;23.378;2023-12-20T00:43:21;95955.59;;;-3.76;92.77
78168;BME280;67410;42.698;23.378;2023-12-20T00:45:47;95949.03;;;-3.80;93.18
78168;BME280;67410;42.698;23.378;2023-12-20T00:48:14;95951.84;;;-3.72;92.84
78168;BME280;67410;42.698;23.378;2023-12-20T00:50:40;95950.69;;;-3.68;93.15
78168;BME280;67410;42.698;23.378;2023-12-20T00:53:06;95942.75;;;-3.65;93.20
78168;BME280;67410;42.698;23.378;2023-12-20T00:55:32;95941.34;;;-3.58;93.02
78168;BME280;67410;42.698;23.378;2023-12-20T00:57:58;95945.44;;;-3.66;93.29
78168;BME280;67410;42.698;23.378;2023-12-20T01:00:25;95939.00;;;-3.72;93.22
78168;BME280;67410;42.698;23.378;2023-12-20T01:02:52;95937.81;;;-3.57;93.54
78168;BME280;67410;42.698;23.378;2023-12-20T01:05:18;95937.56;;;-3.43;93.20
78168;BME280;67410;42.698;23.378;2023-12-20T01:07:45;95932.53;;;-3.33;92.15
78168;BME280;67410;42.698;23.378;2023-12-20T01:10:11;95923.88;;;-3.54;92.21
78168;BME280;67410;42.698;23.378;2023-12-20T01:12:37;95925.44;;;-3.63;92.16
78168;BME280;67410;42.698;23.378;2023-12-20T01:15:03;95921.81;;;-3.71;92.52
78168;BME280;67410;42.698;23.378;2023-12-20T01:17:30;95923.19;;;-3.79;93.27
78168;BME280;67410;42.698;23.378;2023-12-20T01:19:56;95914.91;;;-3.71;93.48
78168;BME280;67410;42.698;23.378;2023-12-20T01:22:22;95917.56;;;-3.50;92.83
78168;BME280;67410;42.698;23.378;2023-12-20T01:24:48;95908.13;;;-3.61;91.98
78168;BME280;67410;42.698;23.378;2023-12-20T01:27:14;95911.50;;;-3.83;92.74
78168;BME280;67410;42.698;23.378;2023-12-20T01:29:40;95913.97;;;-3.81;92.89
78168;BME280;67410;42.698;23.378;2023-12-20T01:32:06;95895.41;;;-3.85;93.26
78168;BME280;67410;42.698;23.378;2023-12-20T01:34:32;95892.25;;;-3.88;93.18
78168;BME280;67410;42.698;23.378;2023-12-20T01:36:58;95898.53;;;-3.81;93.23
78168;BME280;67410;42.698;23.378;2023-12-20T01:39:26;95898.41;;;-3.80;93.01
78168;BME280;67410;42.698;23.378;2023-12-20T01:41:52;95887.88;;;-3.77;92.63
78168;BME280;67410;42.698;23.378;2023-12-20T01:44:18;95881.94;;;-3.77;92.71
78168;BME280;67410;42.698;23.378;2023-12-20T01:46:45;95876.09;;;-3.79;92.95
78168;BME280;67410;42.698;23.378;2023-12-20T01:49:12;95870.94;;;-3.79;92.66
78168;BME280;67410;42.698;23.378;2023-12-20T01:51:39;95863.81;;;-3.76;92.40
78168;BME280;67410;42.698;23.378;2023-12-20T01:54:05;95867.00;;;-3.83;92.75
78168;BME280;67410;42.698;23.378;2023-12-20T01:56:33;95866.63;;;-3.90;93.17
78168;BME280;67410;42.698;23.378;2023-12-20T01:59:00;95868.50;;;-3.92;93.86
78168;BME280;67410;42.698;23.378;2023-12-20T02:01:26;95862.09;;;-3.97;94.14
78168;BME280;67410;42.698;23.378;2023-12-20T02:03:55;95862.31;;;-3.89;94.18
78168;BME280;67410;42.698;23.378;2023-12-20T02:06:23;95863.16;;;-4.11;94.18
78168;BME280;67410;42.698;23.378;2023-12-20T02:08:50;95867.09;;;-4.07;94.90
78168;BME280;67410;42.698;23.378;2023-12-20T02:11:16;95854.59;;;-4.00;94.38
78168;BME280;67410;42.698;23.378;2023-12-20T02:13:42;95850.03;;;-3.97;94.16
78168;BME280;67410;42.698;23.378;2023-12-20T02:16:08;95848.16;;;-3.95;94.63
78168;BME280;67410;42.698;23.378;2023-12-20T02:18:34;95846.19;;;-3.91;94.08
78168;BME280;67410;42.698;23.378;2023-12-20T02:21:00;95847.47;;;-3.97;94.39
78168;BME280;67410;42.698;23.378;2023-12-20T02:23:26;95846.72;;;-3.77;94.23
78168;BME280;67410;42.698;23.378;2023-12-20T02:25:53;95834.81;;;-3.78;94.11
78168;BME280;67410;42.698;23.378;2023-12-20T02:28:19;95829.91;;;-3.81;93.88
78168;BME280;67410;42.698;23.378;2023-12-20T02:30:45;95834.81;;;-3.78;94.32
78168;BME280;67410;42.698;23.378;2023-12-20T02:33:12;95833.00;;;-3.55;93.33
78168;BME280;67410;42.698;23.378;2023-12-20T02:35:39;95834.59;;;-3.43;92.73
78168;BME280;67410;42.698;23.378;2023-12-20T02:38:05;95834.78;;;-3.66;92.71
78168;BME280;67410;42.698;23.378;2023-12-20T02:40:32;95829.41;;;-3.63;93.19
78168;BME280;67410;42.698;23.378;2023-12-20T02:42:58;95819.06;;;-3.84;93.41
78168;BME280;67410;42.698;23.378;2023-12-20T02:45:24;95819.72;;;-3.82;93.56
78168;BME280;67410;42.698;23.378;2023-12-20T02:47:51;95817.66;;;-3.88;93.74
78168;BME280;67410;42.698;23.378;2023-12-20T02:50:17;95817.31;;;-4.06;94.35
78168;BME280;67410;42.698;23.378;2023-12-20T02:52:45;95818.59;;;-4.00;94.82
78168;BME280;67410;42.698;23.378;2023-12-20T02:55:11;95815.75;;;-3.75;94.20
78168;BME280;67410;42.698;23.378;2023-12-20T02:57:37;95825.03;;;-3.52;93.45
78168;BME280;67410;42.698;23.378;2023-12-20T03:00:10;95823.03;;;-3.48;92.18
78168;BME280;67410;42.698;23.378;2023-12-20T03:02:36;95813.69;;;-3.49;92.20
78168;BME280;67410;42.698;23.378;2023-12-20T03:05:03;95813.63;;;-3.70;92.47
78168;BME280;67410;42.698;23.378;2023-12-20T03:07:29;95814.44;;;-3.69;93.34
78168;BME280;67410;42.698;23.378;2023-12-20T03:09:55;95808.03;;;-3.75;93.48
78168;BME280;67410;42.698;23.378;2023-12-20T03:12:21;95801.00;;;-3.62;94.08
78168;BME280;67410;42.698;23.378;2023-12-20T03:14:48;95813.69;;;-3.49;94.11
78168;BME280;67410;42.698;23.378;2023-12-20T03:17:14;95811.91;;;-3.37;93.69
78168;BME280;67410;42.698;23.378;2023-12-20T03:19:40;95811.81;;;-3.26;93.10
78168;BME280;67410;42.698;23.378;2023-12-20T03:22:06;95810.88;;;-3.25;92.59
78168;BME280;67410;42.698;23.378;2023-12-20T03:24:32;95804.66;;;-3.44;92.72
78168;BME280;67410;42.698;23.378;2023-12-20T03:26:58;95802.09;;;-3.44;92.35
78168;BME280;67410;42.698;23.378;2023-12-20T03:29:24;95805.09;;;-3.38;92.50
78168;BME280;67410;42.698;23.378;2023-12-20T03:31:50;95801.25;;;-3.44;92.21
78168;BME280;67410;42.698;23.378;2023-12-20T03:34:17;95794.47;;;-3.45;92.66
78168;BME280;67410;42.698;23.378;2023-12-20T03:36:44;95793.78;;;-3.47;92.43
78168;BME280;67410;42.698;23.378;2023-12-20T03:39:10;95798.25;;;-3.49;92.63
78168;BME280;67410;42.698;23.378;2023-12-20T03:41:36;95794.31;;;-3.32;93.02
78168;BME280;67410;42.698;23.378;2023-12-20T03:44:02;95796.78;;;-3.31;92.37
78168;BME280;67410;42.698;23.378;2023-12-20T03:46:28;95792.16;;;-3.27;91.42
78168;BME280;67410;42.698;23.378;2023-12-20T03:48:54;95792.03;;;-3.47;92.13
78168;BME280;67410;42.698;23.378;2023-12-20T03:51:20;95790.16;;;-3.45;92.42
78168;BME280;67410;42.698;23.378;2023-12-20T03:53:46;95785.59;;;-3.52;92.51
78168;BME280;67410;42.698;23.378;2023-12-20T03:56:12;95789.41;;;-3.35;92.92
78168;BME280;67410;42.698;23.378;2023-12-20T03:58:38;95788.53;;;-3.25;91.73
78168;BME280;67410;42.698;23.378;2023-12-20T04:01:09;95785.34;;;-3.38;91.75
78168;BME280;67410;42.698;23.378;2023-12-20T04:03:38;95782.22;;;-3.53;92.64
78168;BME280;67410;42.698;23.378;2023-12-20T04:06:05;95774.13;;;-3.48;92.66
78168;BME280;67410;42.698;23.378;2023-12-20T04:08:31;95776.34;;;-3.44;92.40
78168;BME280;67410;42.698;23.378;2023-12-20T04:10:57;95769.28;;;-3.30;92.25
78168;BME280;67410;42.698;23.378;2023-12-20T04:13:23;95766.66;;;-3.51;93.39
78168;BME280;67410;42.698;23.378;2023-12-20T04:15:49;95771.44;;;-3.47;93.21
78168;BME280;67410;42.698;23.378;2023-12-20T04:18:16;95770.25;;;-3.43;92.80
78168;BME280;67410;42.698;23.378;2023-12-20T04:20:42;95769.63;;;-3.56;93.11
78168;BME280;67410;42.698;23.378;2023-12-20T04:23:09;95765.47;;;-3.47;93.17
78168;BME280;67410;42.698;23.378;2023-12-20T04:25:35;95760.91;;;-3.44;92.63
78168;BME280;67410;42.698;23.378;2023-12-20T04:28:01;95761.91;;;-3.35;93.02
78168;BME280;67410;42.698;23.378;2023-12-20T04:30:27;95757.84;;;-3.37;91.96
78168;BME280;67410;42.698;23.378;2023-12-20T04:32:53;95759.16;;;-3.43;91.79
78168;BME280;67410;42.698;23.378;2023-12-20T04:35:19;95751.34;;;-3.53;91.65
78168;BME280;67410;42.698;23.378;2023-12-20T04:37:45;95749.16;;;-3.57;91.79
78168;BME280;67410;42.698;23.378;2023-12-20T04:40:11;95751.03;;;-3.59;92.30
78168;BME280;67410;42.698;23.378;2023-12-20T04:42:37;95742.91;;;-3.76;93.22
78168;BME280;67410;42.698;23.378;2023-12-20T04:45:04;95746.31;;;-3.54;93.70
78168;BME280;67410;42.698;23.378;2023-12-20T04:47:30;95744.41;;;-3.73;93.55
78168;BME280;67410;42.698;23.378;2023-12-20T04:49:56;95741.47;;;-3.68;93.29
78168;BME280;67410;42.698;23.378;2023-12-20T04:52:22;95746.75;;;-3.49;92.64
78168;BME280;67410;42.698;23.378;2023-12-20T04:54:48;95741.50;;;-3.48;92.68
78168;BME280;67410;42.698;23.378;2023-12-20T04:57:14;95737.34;;;-3.60;93.30
78168;BME280;67410;42.698;23.378;2023-12-20T04:59:41;95744.66;;;-3.44;93.49
78168;BME280;67410;42.698;23.378;2023-12-20T05:02:07;95742.63;;;-3.20;93.42
78168;BME280;67410;42.698;23.378;2023-12-20T05:04:33;95737.25;;;-3.37;93.38
78168;BME280;67410;42.698;23.378;2023-12-20T05:06:59;95735.13;;;-3.32;93.70
78168;BME280;67410;42.698;23.378;2023-12-20T05:09:25;95728.72;;;-3.38;94.00
78168;BME280;67410;42.698;23.378;2023-12-20T05:11:51;95740.13;;;-3.10;93.76
78168;BME280;67410;42.698;23.378;2023-12-20T05:14:17;95740.03;;;-2.99;92.74
78168;BME280;67410;42.698;23.378;2023-12-20T05:16:44;95722.59;;;-2.95;93.01
78168;BME280;67410;42.698;23.378;2023-12-20T05:19:10;95734.66;;;-2.96;92.57
78168;BME280;67410;42.698;23.378;2023-12-20T05:21:36;95721.06;;;-2.98;92.33
78168;BME280;67410;42.698;23.378;2023-12-20T05:24:02;95718.84;;;-3.12;92.06
78168;BME280;67410;42.698;23.378;2023-12-20T05:26:29;95726.94;;;-3.17;92.71
78168;BME280;67410;42.698;23.378;2023-12-20T05:28:56;95727.94;;;-3.08;92.56
78168;BME280;67410;42.698;23.378;2023-12-20T05:31:22;95715.00;;;-3.18;92.52
78168;BME280;67410;42.698;23.378;2023-12-20T05:33:48;95708.28;;;-3.09;92.87
78168;BME280;67410;42.698;23.378;2023-12-20T05:36:14;95710.75;;;-3.08;93.06
78168;BME280;67410;42.698;23.378;2023-12-20T05:38:41;95713.19;;;-3.27;93.32
78168;BME280;67410;42.698;23.378;2023-12-20T05:41:07;95705.03;;;-3.32;94.21
78168;BME280;67410;42.698;23.378;2023-12-20T05:43:33;95703.03;;;-3.28;94.21
78168;BME280;67410;42.698;23.378;2023-12-20T05:45:59;95706.97;;;-3.03;94.05
78168;BME280;67410;42.698;23.378;2023-12-20T05:48:25;95707.31;;;-2.87;93.74
78168;BME280;67410;42.698;23.378;2023-12-20T05:50:51;95694.34;;;-2.76;93.12
78168;BME280;67410;42.698;23.378;2023-12-20T05:53:17;95697.34;;;-2.71;92.25
78168;BME280;67410;42.698;23.378;2023-12-20T05:55:43;95693.81;;;-2.70;92.23
78168;BME280;67410;42.698;23.378;2023-12-20T05:58:09;95698.72;;;-2.67;92.22
78168;BME280;67410;42.698;23.378;2023-12-20T06:00:35;95692.97;;;-2.80;92.68
78168;BME280;67410;42.698;23.378;2023-12-20T06:03:02;95683.25;;;-2.67;92.64
78168;BME280;67410;42.698;23.378;2023-12-20T06:05:28;95688.31;;;-2.56;92.12
78168;BME280;67410;42.698;23.378;2023-12-20T06:07:54;95680.84;;;-2.59;92.21
78168;BME280;67410;42.698;23.378;2023-12-20T06:10:22;95686.97;;;-2.50;92.14
78168;BME280;67410;42.698;23.378;2023-12-20T06:12:48;95691.44;;;-2.52;92.12
78168;BME280;67410;42.698;23.378;2023-12-20T06:15:16;95683.59;;;-2.51;91.93
78168;BME280;67410;42.698;23.378;2023-12-20T06:17:42;95686.38;;;-2.63;92.81
78168;BME280;67410;42.698;23.378;2023-12-20T06:20:08;95686.03;;;-2.40;92.32
78168;BME280;67410;42.698;23.378;2023-12-20T06:22:35;95690.03;;;-2.26;91.70
78168;BME280;67410;42.698;23.378;2023-12-20T06:25:02;95696.69;;;-2.23;91.65
78168;BME280;67410;42.698;23.378;2023-12-20T06:27:29;95690.72;;;-2.24;91.44
78168;BME280;67410;42.698;23.378;2023-12-20T06:29:56;95691.22;;;-2.30;91.84
78168;BME280;67410;42.698;23.378;2023-12-20T06:32:22;95688.69;;;-2.20;91.75
78168;BME280;67410;42.698;23.378;2023-12-20T06:34:49;95689.69;;;-2.42;92.30
78168;BME280;67410;42.698;23.378;2023-12-20T06:37:15;95689.22;;;-2.17;92.18
78168;BME280;67410;42.698;23.378;2023-12-20T06:39:41;95682.84;;;-2.13;91.71
78168;BME280;67410;42.698;23.378;2023-12-20T06:42:07;95684.19;;;-2.18;91.84
78168;BME280;67410;42.698;23.378;2023-12-20T06:44:33;95681.06;;;-2.12;91.73
78168;BME280;67410;42.698;23.378;2023-12-20T06:47:00;95680.94;;;-2.11;92.04
78168;BME280;67410;42.698;23.378;2023-12-20T06:49:27;95676.06;;;-2.04;91.65
78168;BME280;67410;42.698;23.378;2023-12-20T06:51:53;95670.38;;;-2.08;92.06
78168;BME280;67410;42.698;23.378;2023-12-20T06:54:19;95664.28;;;-1.97;92.04
78168;BME280;67410;42.698;23.378;2023-12-20T06:56:45;95660.19;;;-1.90;91.29
78168;BME280;67410;42.698;23.378;2023-12-20T06:59:11;95659.50;;;-1.82;91.21
78168;BME280;67410;42.698;23.378;2023-12-20T07:01:37;95667.81;;;-1.79;91.32
78168;BME280;67410;42.698;23.378;2023-12-20T07:04:03;95665.63;;;-1.83;91.45
78168;BME280;67410;42.698;23.378;2023-12-20T07:06:29;95661.41;;;-1.75;91.90
78168;BME280;67410;42.698;23.378;2023-12-20T07:08:55;95664.81;;;-1.74;92.15
78168;BME280;67410;42.698;23.378;2023-12-20T07:11:21;95656.41;;;-1.66;92.18
78168;BME280;67410;42.698;23.378;2023-12-20T07:13:48;95650.41;;;-1.67;89.98
78168;BME280;67410;42.698;23.378;2023-12-20T07:16:14;95649.06;;;-1.71;89.86
78168;BME280;67410;42.698;23.378;2023-12-20T07:18:40;95647.28;;;-1.90;91.30
78168;BME280;67410;42.698;23.378;2023-12-20T07:21:06;95651.75;;;-2.11;91.80
78168;BME280;67410;42.698;23.378;2023-12-20T07:23:33;95642.53;;;-1.85;92.03
78168;BME280;67410;42.698;23.378;2023-12-20T07:25:59;95647.13;;;-1.50;90.75
78168;BME280;67410;42.698;23.378;2023-12-20T07:28:26;95645.22;;;-1.48;90.23
78168;BME280;67410;42.698;23.378;2023-12-20T07:30:52;95639.94;;;-1.46;91.15
78168;BME280;67410;42.698;23.378;2023-12-20T07:33:18;95646.38;;;-1.23;90.15
78168;BME280;67410;42.698;23.378;2023-12-20T07:35:44;95641.69;;;-1.47;90.15
78168;BME280;67410;42.698;23.378;2023-12-20T07:38:11;95641.09;;;-1.31;91.07
78168;BME280;67410;42.698;23.378;2023-12-20T07:40:38;95640.47;;;-1.06;90.29
78168;BME280;67410;42.698;23.378;2023-12-20T07:43:05;95635.56;;;-0.99;90.00
78168;BME280;67410;42.698;23.378;2023-12-20T07:45:31;95637.88;;;-0.96;89.64
78168;BME280;67410;42.698;23.378;2023-12-20T07:47:57;95641.00;;;-0.92;89.96
78168;BME280;67410;42.698;23.378;2023-12-20T07:50:23;95632.09;;;-0.80;88.51
78168;BME280;67410;42.698;23.378;2023-12-20T07:52:49;95637.06;;;-0.96;89.23
78168;BME280;67410;42.698;23.378;2023-12-20T07:55:15;95633.38;;;-0.94;89.25
78168;BME280;67410;42.698;23.378;2023-12-20T07:57:41;95622.72;;;-0.81;88.88
78168;BME280;67410;42.698;23.378;2023-12-20T08:00:08;95627.72;;;-0.80;88.66
78168;BME280;67410;42.698;23.378;2023-12-20T08:02:34;95634.06;;;-0.64;87.74
78168;BME280;67410;42.698;23.378;2023-12-20T08:05:00;95633.41;;;-0.66;87.30
78168;BME280;67410;42.698;23.378;2023-12-20T08:07:26;95626.50;;;-0.76;87.97
78168;BME280;67410;42.698;23.378;2023-12-20T08:09:52;95628.78;;;-0.73;88.59
78168;BME280;67410;42.698;23.378;2023-12-20T08:12:20;95616.66;;;-0.62;88.21
78168;BME280;67410;42.698;23.378;2023-12-20T08:14:46;95624.94;;;-0.59;87.97
78168;BME280;67410;42.698;23.378;2023-12-20T08:17:12;95620.44;;;-0.57;87.75
78168;BME280;67410;42.698;23.378;2023-12-20T08:19:38;95607.13;;;-0.44;87.84
78168;BME280;67410;42.698;23.378;2023-12-20T08:22:05;95611.69;;;-0.28;87.37
78168;BME280;67410;42.698;23.378;2023-12-20T08:24:31;95608.63;;;-0.42;86.72
78168;BME280;67410;42.698;23.378;2023-12-20T08:26:57;95606.19;;;-0.43;86.20
78168;BME280;67410;42.698;23.378;2023-12-20T08:29:23;95614.56;;;-0.14;86.29
78168;BME280;67410;42.698;23.378;2023-12-20T08:31:53;95612.94;;;-0.15;85.56
78168;BME280;67410;42.698;23.378;2023-12-20T08:34:19;95606.41;;;-0.37;86.01
78168;BME280;67410;42.698;23.378;2023-12-20T08:36:46;95600.19;;;-0.26;85.62
78168;BME280;67410;42.698;23.378;2023-12-20T08:39:12;95596.38;;;-0.22;86.44
78168;BME280;67410;42.698;23.378;2023-12-20T08:41:38;95595.72;;;-0.06;86.44
78168;BME280;67410;42.698;23.378;2023-12-20T08:44:04;95599.03;;;0.04;85.58
78168;BME280;67410;42.698;23.378;2023-12-20T08:46:30;95577.03;;;0.00;85.67
78168;BME280;67410;42.698;23.378;2023-12-20T08:48:56;95582.63;;;-0.05;85.77
78168;BME280;67410;42.698;23.378;2023-12-20T08:51:22;95576.28;;;-0.10;86.45
78168;BME280;67410;42.698;23.378;2023-12-20T08:53:51;95584.78;;;0.00;85.31
78168;BME280;67410;42.698;23.378;2023-12-20T08:56:17;95579.28;;;0.03;85.07
78168;BME280;67410;42.698;23.378;2023-12-20T08:58:45;95579.81;;;0.07;85.18
78168;BME280;67410;42.698;23.378;2023-12-20T09:01:11;95570.25;;;0.07;85.97
78168;BME280;67410;42.698;23.378;2023-12-20T09:03:37;95555.31;;;0.01;85.69
78168;BME280;67410;42.698;23.378;2023-12-20T09:06:03;95559.19;;;-0.03;86.05
78168;BME280;67410;42.698;23.378;2023-12-20T09:08:29;95542.00;;;0.14;85.74
78168;BME280;67410;42.698;23.378;2023-12-20T09:10:56;95538.69;;;0.04;83.94
78168;BME280;67410;42.698;23.378;2023-12-20T09:13:22;95531.28;;;0.09;85.19
78168;BME280;67410;42.698;23.378;2023-12-20T09:15:56;95523.66;;;0.07;84.91
78168;BME280;67410;42.698;23.378;2023-12-20T09:18:23;95508.81;;;0.09;85.42
78168;BME280;67410;42.698;23.378;2023-12-20T09:20:50;95505.19;;;0.28;85.56
78168;BME280;67410;42.698;23.378;2023-12-20T09:23:16;95494.75;;;0.38;85.40
78168;BME280;67410;42.698;23.378;2023-12-20T09:25:43;95493.31;;;0.43;84.02
78168;BME280;67410;42.698;23.378;2023-12-20T09:28:10;95486.06;;;0.21;83.51
78168;BME280;67410;42.698;23.378;2023-12-20T09:30:36;95481.06;;;0.19;84.24
78168;BME280;67410;42.698;23.378;2023-12-20T09:33:05;95482.75;;;0.37;83.67
78168;BME280;67410;42.698;23.378;2023-12-20T09:35:33;95475.97;;;0.36;83.99
78168;BME280;67410;42.698;23.378;2023-12-20T09:37:59;95467.13;;;0.20;84.22
78168;BME280;67410;42.698;23.378;2023-12-20T09:40:26;95466.06;;;0.31;84.04
78168;BME280;67410;42.698;23.378;2023-12-20T09:43:10;95450.56;;;0.39;83.57
78168;BME280;67410;42.698;23.378;2023-12-20T09:45:36;95442.94;;;0.38;84.00
78168;BME280;67410;42.698;23.378;2023-12-20T09:48:04;95439.59;;;0.45;84.74
78168;BME280;67410;42.698;23.378;2023-12-20T09:50:30;95455.50;;;0.50;83.06
78168;BME280;67410;42.698;23.378;2023-12-20T09:52:58;95444.88;;;0.70;82.71
78168;BME280;67410;42.698;23.378;2023-12-20T09:55:27;95434.81;;;0.66;83.17
78168;BME280;67410;42.698;23.378;2023-12-20T09:57:56;95431.16;;;0.85;83.23
78168;BME280;67410;42.698;23.378;2023-12-20T10:00:22;95440.22;;;0.81;83.43
78168;BME280;67410;42.698;23.378;2023-12-20T10:02:58;95436.72;;;1.07;82.68
78168;BME280;67410;42.698;23.378;2023-12-20T10:05:31;95439.53;;;1.54;80.46
78168;BME280;67410;42.698;23.378;2023-12-20T10:07:58;95427.03;;;1.41;80.87
78168;BME280;67410;42.698;23.378;2023-12-20T10:10:25;95426.03;;;2.15;78.59
78168;BME280;67410;42.698;23.378;2023-12-20T10:13:10;95413.84;;;2.08;76.65
78168;BME280;67410;42.698;23.378;2023-12-20T10:15:37;95405.03;;;2.33;77.10
78168;BME280;67410;42.698;23.378;2023-12-20T10:18:04;95391.63;;;2.52;76.46
78168;BME280;67410;42.698;23.378;2023-12-20T10:20:31;95401.09;;;2.45;77.14
78168;BME280;67410;42.698;23.378;2023-12-20T10:22:59;95405.50;;;2.36;76.70
78168;BME280;67410;42.698;23.378;2023-12-20T10:25:25;95387.81;;;2.32;77.47
78168;BME280;67410;42.698;23.378;2023-12-20T10:28:09;95388.34;;;2.66;77.52
78168;BME280;67410;42.698;23.378;2023-12-20T10:30:36;95381.03;;;2.93;76.75
78168;BME280;67410;42.698;23.378;2023-12-20T10:33:03;95373.94;;;3.32;75.72
78168;BME280;67410;42.698;23.378;2023-12-20T10:35:29;95362.84;;;3.38;75.15
78168;BME280;67410;42.698;23.378;2023-12-20T10:37:56;95356.75;;;2.78;76.03
78168;BME280;67410;42.698;23.378;2023-12-20T10:40:27;95368.75;;;2.09;78.05
78168;BME280;67410;42.698;23.378;2023-12-20T10:42:56;95370.38;;;2.49;76.45
78168;BME280;67410;42.698;23.378;2023-12-20T10:45:22;95372.94;;;2.57;75.85
78168;BME280;67410;42.698;23.378;2023-12-20T10:47:50;95358.44;;;2.31;76.36
78168;BME280;67410;42.698;23.378;2023-12-20T10:50:18;95344.38;;;2.18;77.11
78168;BME280;67410;42.698;23.378;2023-12-20T10:52:45;95342.50;;;2.34;77.83
78168;BME280;67410;42.698;23.378;2023-12-20T10:55:12;95348.09;;;2.54;78.82
78168;BME280;67410;42.698;23.378;2023-12-20T10:57:39;95336.50;;;2.34;77.83
78168;BME280;67410;42.698;23.378;2023-12-20T11:00:08;95338.22;;;3.03;76.50
78168;BME280;67410;42.698;23.378;2023-12-20T11:02:40;95336.53;;;2.65;77.39
78168;BME280;67410;42.698;23.378;2023-12-20T11:05:16;95321.69;;;3.19;75.20
78168;BME280;67410;42.698;23.378;2023-12-20T11:07:48;95319.06;;;3.42;74.00
78168;BME280;67410;42.698;23.378;2023-12-20T11:10:34;95301.91;;;3.10;73.97
78168;BME280;67410;42.698;23.378;2023-12-20T11:13:36;95315.75;;;2.88;74.42
78168;BME280;67410;42.698;23.378;2023-12-20T11:15:54;95303.19;;;3.14;73.57
78168;BME280;67410;42.698;23.378;2023-12-20T11:18:28;95305.84;;;3.06;74.01
78168;BME280;67410;42.698;23.378;2023-12-20T11:20:55;95307.06;;;2.72;76.18
78168;BME280;67410;42.698;23.378;2023-12-20T11:23:26;95288.88;;;2.95;74.55
78168;BME280;67410;42.698;23.378;2023-12-20T11:25:53;95287.81;;;2.82;75.57
78168;BME280;67410;42.698;23.378;2023-12-20T11:28:24;95282.16;;;3.24;75.51
78168;BME280;67410;42.698;23.378;2023-12-20T11:30:55;95267.13;;;3.11;75.22
78168;BME280;67410;42.698;23.378;2023-12-20T11:33:26;95260.88;;;3.20;74.26
78168;BME280;67410;42.698;23.378;2023-12-20T11:35:55;95257.28;;;2.30;77.04
78168;BME280;67410;42.698;23.378;2023-12-20T11:38:22;95245.75;;;3.01;77.72
78168;BME280;67410;42.698;23.378;2023-12-20T11:40:49;95234.41;;;3.17;75.51
78168;BME280;67410;42.698;23.378;2023-12-20T11:43:34;95238.03;;;2.93;75.59
78168;BME280;67410;42.698;23.378;2023-12-20T11:46:09;95228.97;;;3.03;76.06
78168;BME280;67410;42.698;23.378;2023-12-20T11:48:38;95238.03;;;2.93;75.26
78168;BME280;67410;42.698;23.378;2023-12-20T11:51:13;95226.28;;;2.51;76.45
78168;BME280;67410;42.698;23.378;2023-12-20T11:53:40;95224.59;;;2.13;77.60
78168;BME280;67410;42.698;23.378;2023-12-20T11:56:08;95221.88;;;1.67;80.17
78168;BME280;67410;42.698;23.378;2023-12-20T11:58:34;95212.63;;;1.64;81.25
78168;BME280;67410;42.698;23.378;2023-12-20T12:01:01;95209.59;;;1.53;81.61
78168;BME280;67410;42.698;23.378;2023-12-20T12:03:28;95206.09;;;1.29;82.34
78168;BME280;67410;42.698;23.378;2023-12-20T12:05:54;95199.16;;;1.14;82.47
78168;BME280;67410;42.698;23.378;2023-12-20T12:08:20;95190.09;;;1.10;83.75
78168;BME280;67410;42.698;23.378;2023-12-20T12:10:46;95189.16;;;0.86;84.83
78168;BME280;67410;42.698;23.378;2023-12-20T12:13:12;95187.22;;;0.88;84.88
78168;BME280;67410;42.698;23.378;2023-12-20T12:15:40;95180.91;;;0.91;85.41
78168;BME280;67410;42.698;23.378;2023-12-20T12:18:08;95176.72;;;0.82;86.07
78168;BME280;67410;42.698;23.378;2023-12-20T12:20:34;95175.91;;;0.65;86.31
78168;BME280;67410;42.698;23.378;2023-12-20T12:23:03;95168.28;;;0.80;86.10
78168;BME280;67410;42.698;23.378;2023-12-20T12:25:30;95164.53;;;0.82;86.57
78168;BME280;67410;42.698;23.378;2023-12-20T12:28:00;95148.81;;;0.84;86.44
78168;BME280;67410;42.698;23.378;2023-12-20T12:30:27;95165.69;;;0.80;87.29
78168;BME280;67410;42.698;23.378;2023-12-20T12:32:53;95160.81;;;0.85;87.06
78168;BME280;67410;42.698;23.378;2023-12-20T12:35:22;95156.97;;;0.81;86.21
78168;BME280;67410;42.698;23.378;2023-12-20T12:37:48;95168.56;;;1.01;86.43
78168;BME280;67410;42.698;23.378;2023-12-20T12:40:15;95168.09;;;0.97;86.57
78168;BME280;67410;42.698;23.378;2023-12-20T12:42:43;95163.16;;;1.35;85.60
78168;BME280;67410;42.698;23.378;2023-12-20T12:45:10;95162.72;;;1.62;84.42
78168;BME280;67410;42.698;23.378;2023-12-20T12:47:39;95154.09;;;1.93;82.69
78168;BME280;67410;42.698;23.378;2023-12-20T12:50:06;95149.00;;;2.08;82.47
78168;BME280;67410;42.698;23.378;2023-12-20T12:52:32;95151.53;;;2.16;81.39